sensor_id;sensor_type;location;lat;lon;timestamp;P1;durP1;ratioP1;P2;durP2;ratioP2
55672;SDS011;41554;45.366;20.400;2023-02-28T00:01:30;33.05;;;12.38;;
55672;SDS011;41554;45.366;20.400;2023-02-28T00:03:56;15.65;;;10.20;;
55672;SDS011;41554;45.366;20.400;2023-02-28T00:06:22;16.13;;;11.32;;
55672;SDS011;41554;45.366;20.400;2023-02-28T00:08:49;17.58;;;13.20;;
55672;SDS011;41554;45.366;20.400;2023-02-28T00:11:15;18.30;;;13.48;;
55672;SDS011;41554;45.366;20.400;2023-02-28T00:13:42;15.60;;;11.05;;
55672;SDS011;41554;45.366;20.400;2023-02-28T00:16:12;15.32;;;10.80;;
55672;SDS011;41554;45.366;20.400;2023-02-28T00:18:39;15.93;;;12.13;;
55672;SDS011;41554;45.366;20.400;2023-02-28T00:21:05;15.88;;;11.00;;
55672;SDS011;41554;45.366;20.400;2023-02-28T00:23:32;17.95;;;10.45;;
55672;SDS011;41554;45.366;20.400;2023-02-28T00:25:58;19.05;;;13.68;;
55672;SDS011;41554;45.366;20.400;2023-02-28T00:28:24;14.85;;;12.55;;
55672;SDS011;41554;45.366;20.400;2023-02-28T00:30:50;17.35;;;11.30;;
55672;SDS011;41554;45.366;20.400;2023-02-28T00:33:16;15.82;;;12.20;;
55672;SDS011;41554;45.366;20.400;2023-02-28T00:35:42;17.52;;;12.45;;
55672;SDS011;41554;45.366;20.400;2023-02-28T00:38:11;15.85;;;11.70;;
55672;SDS011;41554;45.366;20.400;2023-02-28T00:40:37;20.13;;;14.23;;
55672;SDS011;41554;45.366;20.400;2023-02-28T00:43:03;19.80;;;14.63;;
55672;SDS011;41554;45.366;20.400;2023-02-28T00:45:29;20.55;;;14.18;;
55672;SDS011;41554;45.366;20.400;2023-02-28T00:47:55;21.83;;;15.48;;
55672;SDS011;41554;45.366;20.400;2023-02-28T00:50:21;24.20;;;15.38;;
55672;SDS011;41554;45.366;20.400;2023-02-28T00:52:47;21.98;;;14.10;;
55672;SDS011;41554;45.366;20.400;2023-02-28T00:55:14;21.27;;;14.10;;
55672;SDS011;41554;45.366;20.400;2023-02-28T00:57:40;17.95;;;13.35;;
55672;SDS011;41554;45.366;20.400;2023-02-28T01:00:06;23.85;;;16.33;;
55672;SDS011;41554;45.366;20.400;2023-02-28T01:02:32;25.30;;;16.42;;
55672;SDS011;41554;45.366;20.400;2023-02-28T01:04:58;19.88;;;13.57;;
55672;SDS011;41554;45.366;20.400;2023-02-28T01:07:24;19.67;;;12.73;;
55672;SDS011;41554;45.366;20.400;2023-02-28T01:09:50;24.75;;;14.32;;
55672;SDS011;41554;45.366;20.400;2023-02-28T01:12:16;21.58;;;15.73;;
55672;SDS011;41554;45.366;20.400;2023-02-28T01:14:43;27.20;;;16.45;;
55672;SDS011;41554;45.366;20.400;2023-02-28T01:17:09;18.77;;;12.73;;
55672;SDS011;41554;45.366;20.400;2023-02-28T01:19:35;21.77;;;15.48;;
55672;SDS011;41554;45.366;20.400;2023-02-28T01:22:04;22.92;;;15.00;;
55672;SDS011;41554;45.366;20.400;2023-02-28T01:24:31;26.90;;;18.38;;
55672;SDS011;41554;45.366;20.400;2023-02-28T01:26:57;22.00;;;15.50;;
55672;SDS011;41554;45.366;20.400;2023-02-28T01:29:23;22.08;;;15.35;;
55672;SDS011;41554;45.366;20.400;2023-02-28T01:31:49;23.33;;;15.90;;
55672;SDS011;41554;45.366;20.400;2023-02-28T01:34:15;26.25;;;17.20;;
55672;SDS011;41554;45.366;20.400;2023-02-28T01:36:44;26.02;;;18.48;;
55672;SDS011;41554;45.366;20.400;2023-02-28T01:39:10;27.00;;;18.75;;
55672;SDS011;41554;45.366;20.400;2023-02-28T01:41:37;23.42;;;17.48;;
55672;SDS011;41554;45.366;20.400;2023-02-28T01:44:05;24.02;;;17.25;;
55672;SDS011;41554;45.366;20.400;2023-02-28T01:46:33;24.75;;;16.98;;
55672;SDS011;41554;45.366;20.400;2023-02-28T01:49:11;23.20;;;15.82;;
55672;SDS011;41554;45.366;20.400;2023-02-28T01:51:51;26.30;;;17.45;;
55672;SDS011;41554;45.366;20.400;2023-02-28T01:54:26;21.42;;;17.35;;
55672;SDS011;41554;45.366;20.400;2023-02-28T01:56:57;26.88;;;17.25;;
55672;SDS011;41554;45.366;20.400;2023-02-28T01:59:27;24.05;;;17.10;;
55672;SDS011;41554;45.366;20.400;2023-02-28T02:01:55;26.23;;;14.73;;
55672;SDS011;41554;45.366;20.400;2023-02-28T02:04:22;20.30;;;15.82;;
55672;SDS011;41554;45.366;20.400;2023-02-28T02:06:49;21.50;;;16.48;;
55672;SDS011;41554;45.366;20.400;2023-02-28T02:09:15;26.95;;;18.92;;
55672;SDS011;41554;45.366;20.400;2023-02-28T02:11:42;25.20;;;16.23;;
55672;SDS011;41554;45.366;20.400;2023-02-28T02:37:26;32.47;;;18.17;;
55672;SDS011;41554;45.366;20.400;2023-02-28T02:42:35;30.25;;;17.75;;
55672;SDS011;41554;45.366;20.400;2023-02-28T02:45:07;23.85;;;16.50;;
55672;SDS011;41554;45.366;20.400;2023-02-28T02:47:34;20.83;;;15.00;;
55672;SDS011;41554;45.366;20.400;2023-02-28T02:50:03;24.17;;;16.20;;
55672;SDS011;41554;45.366;20.400;2023-02-28T02:52:33;28.50;;;19.75;;
55672;SDS011;41554;45.366;20.400;2023-02-28T02:55:00;16.40;;;12.60;;
55672;SDS011;41554;45.366;20.400;2023-02-28T02:57:30;25.50;;;17.83;;
55672;SDS011;41554;45.366;20.400;2023-02-28T02:59:57;23.23;;;20.00;;
55672;SDS011;41554;45.366;20.400;2023-02-28T03:02:24;27.90;;;16.08;;
55672;SDS011;41554;45.366;20.400;2023-02-28T03:04:52;25.65;;;16.13;;
55672;SDS011;41554;45.366;20.400;2023-02-28T03:07:19;29.63;;;18.83;;
55672;SDS011;41554;45.366;20.400;2023-02-28T03:09:50;30.17;;;19.23;;
55672;SDS011;41554;45.366;20.400;2023-02-28T03:12:17;26.80;;;19.67;;
55672;SDS011;41554;45.366;20.400;2023-02-28T03:27:18;24.58;;;16.38;;
55672;SDS011;41554;45.366;20.400;2023-02-28T03:29:47;22.92;;;16.38;;
55672;SDS011;41554;45.366;20.400;2023-02-28T03:32:17;20.08;;;15.18;;
55672;SDS011;41554;45.366;20.400;2023-02-28T03:34:51;24.73;;;14.93;;
55672;SDS011;41554;45.366;20.400;2023-02-28T03:37:20;23.88;;;17.08;;
55672;SDS011;41554;45.366;20.400;2023-02-28T03:40:01;20.30;;;16.48;;
55672;SDS011;41554;45.366;20.400;2023-02-28T03:42:29;25.35;;;16.70;;
55672;SDS011;41554;45.366;20.400;2023-02-28T03:44:58;20.65;;;15.55;;
55672;SDS011;41554;45.366;20.400;2023-02-28T03:50:14;20.27;;;15.43;;
55672;SDS011;41554;45.366;20.400;2023-02-28T03:52:43;18.35;;;14.63;;
55672;SDS011;41554;45.366;20.400;2023-02-28T03:55:11;18.23;;;13.25;;
55672;SDS011;41554;45.366;20.400;2023-02-28T04:00:12;23.52;;;13.40;;
55672;SDS011;41554;45.366;20.400;2023-02-28T04:02:40;20.48;;;15.13;;
55672;SDS011;41554;45.366;20.400;2023-02-28T04:05:06;18.80;;;12.32;;
55672;SDS011;41554;45.366;20.400;2023-02-28T04:07:32;22.45;;;15.65;;
55672;SDS011;41554;45.366;20.400;2023-02-28T04:09:58;25.85;;;13.15;;
55672;SDS011;41554;45.366;20.400;2023-02-28T04:12:25;24.45;;;15.48;;
55672;SDS011;41554;45.366;20.400;2023-02-28T04:14:51;21.77;;;16.10;;
55672;SDS011;41554;45.366;20.400;2023-02-28T04:17:17;19.88;;;12.73;;
55672;SDS011;41554;45.366;20.400;2023-02-28T04:19:43;22.83;;;14.10;;
55672;SDS011;41554;45.366;20.400;2023-02-28T04:22:10;16.88;;;11.15;;
55672;SDS011;41554;45.366;20.400;2023-02-28T04:24:36;16.40;;;12.52;;
55672;SDS011;41554;45.366;20.400;2023-02-28T04:27:06;15.23;;;12.18;;
55672;SDS011;41554;45.366;20.400;2023-02-28T04:29:32;14.55;;;11.43;;
55672;SDS011;41554;45.366;20.400;2023-02-28T04:31:59;20.90;;;13.85;;
55672;SDS011;41554;45.366;20.400;2023-02-28T04:34:26;20.17;;;14.70;;
55672;SDS011;41554;45.366;20.400;2023-02-28T04:36:52;20.40;;;13.98;;
55672;SDS011;41554;45.366;20.400;2023-02-28T04:39:20;17.17;;;11.77;;
55672;SDS011;41554;45.366;20.400;2023-02-28T04:41:46;15.30;;;12.20;;
55672;SDS011;41554;45.366;20.400;2023-02-28T04:44:12;24.98;;;13.88;;
55672;SDS011;41554;45.366;20.400;2023-02-28T04:46:39;20.75;;;15.02;;
55672;SDS011;41554;45.366;20.400;2023-02-28T04:49:05;21.88;;;13.77;;
55672;SDS011;41554;45.366;20.400;2023-02-28T04:51:31;19.70;;;13.25;;
55672;SDS011;41554;45.366;20.400;2023-02-28T04:53:57;19.58;;;13.75;;
55672;SDS011;41554;45.366;20.400;2023-02-28T04:56:23;17.77;;;13.02;;
55672;SDS011;41554;45.366;20.400;2023-02-28T04:58:50;22.40;;;15.32;;
55672;SDS011;41554;45.366;20.400;2023-02-28T05:01:27;20.23;;;13.93;;
55672;SDS011;41554;45.366;20.400;2023-02-28T05:03:54;20.35;;;14.77;;
55672;SDS011;41554;45.366;20.400;2023-02-28T05:06:20;18.23;;;13.32;;
55672;SDS011;41554;45.366;20.400;2023-02-28T05:08:48;17.92;;;13.52;;
55672;SDS011;41554;45.366;20.400;2023-02-28T05:13:47;17.60;;;11.93;;
55672;SDS011;41554;45.366;20.400;2023-02-28T05:16:13;16.90;;;13.18;;
55672;SDS011;41554;45.366;20.400;2023-02-28T05:18:39;23.25;;;15.15;;
55672;SDS011;41554;45.366;20.400;2023-02-28T05:21:05;16.55;;;11.90;;
55672;SDS011;41554;45.366;20.400;2023-02-28T05:23:32;13.82;;;10.20;;
55672;SDS011;41554;45.366;20.400;2023-02-28T05:25:58;16.83;;;12.23;;
55672;SDS011;41554;45.366;20.400;2023-02-28T05:28:24;24.35;;;13.85;;
55672;SDS011;41554;45.366;20.400;2023-02-28T05:30:50;17.45;;;13.05;;
55672;SDS011;41554;45.366;20.400;2023-02-28T05:33:16;16.65;;;11.48;;
55672;SDS011;41554;45.366;20.400;2023-02-28T05:35:42;18.63;;;13.25;;
55672;SDS011;41554;45.366;20.400;2023-02-28T05:38:08;16.27;;;13.00;;
55672;SDS011;41554;45.366;20.400;2023-02-28T05:40:34;18.17;;;10.95;;
55672;SDS011;41554;45.366;20.400;2023-02-28T05:43:00;22.17;;;14.05;;
55672;SDS011;41554;45.366;20.400;2023-02-28T05:45:27;20.88;;;12.95;;
55672;SDS011;41554;45.366;20.400;2023-02-28T05:47:53;15.73;;;11.18;;
55672;SDS011;41554;45.366;20.400;2023-02-28T05:50:19;19.15;;;11.88;;
55672;SDS011;41554;45.366;20.400;2023-02-28T05:52:49;18.27;;;11.43;;
55672;SDS011;41554;45.366;20.400;2023-02-28T05:55:15;18.98;;;13.02;;
55672;SDS011;41554;45.366;20.400;2023-02-28T05:57:41;23.52;;;14.48;;
55672;SDS011;41554;45.366;20.400;2023-02-28T06:00:08;21.63;;;13.60;;
55672;SDS011;41554;45.366;20.400;2023-02-28T06:02:34;17.65;;;13.27;;
55672;SDS011;41554;45.366;20.400;2023-02-28T06:05:00;20.10;;;14.02;;
55672;SDS011;41554;45.366;20.400;2023-02-28T06:07:26;15.68;;;12.73;;
55672;SDS011;41554;45.366;20.400;2023-02-28T06:09:52;16.00;;;12.73;;
55672;SDS011;41554;45.366;20.400;2023-02-28T06:12:18;17.45;;;13.02;;
55672;SDS011;41554;45.366;20.400;2023-02-28T06:14:45;12.73;;;9.88;;
55672;SDS011;41554;45.366;20.400;2023-02-28T06:17:11;17.60;;;13.93;;
55672;SDS011;41554;45.366;20.400;2023-02-28T06:19:37;19.67;;;13.85;;
55672;SDS011;41554;45.366;20.400;2023-02-28T06:22:04;17.65;;;13.55;;
55672;SDS011;41554;45.366;20.400;2023-02-28T06:24:30;18.35;;;14.40;;
55672;SDS011;41554;45.366;20.400;2023-02-28T06:26:56;21.75;;;14.05;;
55672;SDS011;41554;45.366;20.400;2023-02-28T06:29:29;20.98;;;13.88;;
55672;SDS011;41554;45.366;20.400;2023-02-28T06:31:55;19.20;;;14.25;;
55672;SDS011;41554;45.366;20.400;2023-02-28T06:34:21;19.55;;;11.50;;
55672;SDS011;41554;45.366;20.400;2023-02-28T06:36:49;18.33;;;13.75;;
55672;SDS011;41554;45.366;20.400;2023-02-28T06:39:16;19.08;;;12.55;;
55672;SDS011;41554;45.366;20.400;2023-02-28T06:41:42;16.98;;;11.73;;
55672;SDS011;41554;45.366;20.400;2023-02-28T06:44:14;24.90;;;14.40;;
55672;SDS011;41554;45.366;20.400;2023-02-28T06:46:41;19.98;;;13.98;;
55672;SDS011;41554;45.366;20.400;2023-02-28T06:49:09;22.27;;;14.93;;
55672;SDS011;41554;45.366;20.400;2023-02-28T06:51:35;17.15;;;12.85;;
55672;SDS011;41554;45.366;20.400;2023-02-28T06:54:02;23.98;;;13.93;;
55672;SDS011;41554;45.366;20.400;2023-02-28T06:56:28;22.20;;;16.50;;
55672;SDS011;41554;45.366;20.400;2023-02-28T06:58:54;26.33;;;14.82;;
55672;SDS011;41554;45.366;20.400;2023-02-28T07:01:21;22.10;;;16.42;;
55672;SDS011;41554;45.366;20.400;2023-02-28T07:03:48;25.45;;;15.88;;
55672;SDS011;41554;45.366;20.400;2023-02-28T07:06:20;25.50;;;17.20;;
55672;SDS011;41554;45.366;20.400;2023-02-28T07:08:48;19.85;;;15.52;;
55672;SDS011;41554;45.366;20.400;2023-02-28T07:11:14;22.73;;;15.65;;
55672;SDS011;41554;45.366;20.400;2023-02-28T07:13:40;22.00;;;13.55;;
55672;SDS011;41554;45.366;20.400;2023-02-28T07:16:07;24.45;;;17.50;;
55672;SDS011;41554;45.366;20.400;2023-02-28T07:18:35;17.23;;;14.30;;
55672;SDS011;41554;45.366;20.400;2023-02-28T07:21:02;20.33;;;15.00;;
55672;SDS011;41554;45.366;20.400;2023-02-28T07:23:28;21.80;;;14.38;;
55672;SDS011;41554;45.366;20.400;2023-02-28T07:25:54;19.83;;;14.07;;
55672;SDS011;41554;45.366;20.400;2023-02-28T07:28:20;21.45;;;13.63;;
55672;SDS011;41554;45.366;20.400;2023-02-28T07:30:46;18.13;;;12.05;;
55672;SDS011;41554;45.366;20.400;2023-02-28T07:33:13;28.08;;;14.70;;
55672;SDS011;41554;45.366;20.400;2023-02-28T07:35:39;27.65;;;15.20;;
55672;SDS011;41554;45.366;20.400;2023-02-28T07:38:05;21.60;;;17.00;;
55672;SDS011;41554;45.366;20.400;2023-02-28T07:40:33;24.45;;;14.60;;
55672;SDS011;41554;45.366;20.400;2023-02-28T07:42:59;20.60;;;14.57;;
55672;SDS011;41554;45.366;20.400;2023-02-28T07:45:26;22.23;;;15.52;;
55672;SDS011;41554;45.366;20.400;2023-02-28T07:47:53;18.90;;;14.20;;
55672;SDS011;41554;45.366;20.400;2023-02-28T07:50:19;27.23;;;15.60;;
55672;SDS011;41554;45.366;20.400;2023-02-28T07:52:45;24.40;;;17.90;;
55672;SDS011;41554;45.366;20.400;2023-02-28T07:55:11;37.92;;;23.20;;
55672;SDS011;41554;45.366;20.400;2023-02-28T07:57:38;26.35;;;17.73;;
55672;SDS011;41554;45.366;20.400;2023-02-28T08:00:05;21.65;;;14.48;;
55672;SDS011;41554;45.366;20.400;2023-02-28T08:02:31;43.92;;;27.70;;
55672;SDS011;41554;45.366;20.400;2023-02-28T08:04:57;26.80;;;16.17;;
55672;SDS011;41554;45.366;20.400;2023-02-28T08:07:23;18.80;;;14.52;;
55672;SDS011;41554;45.366;20.400;2023-02-28T08:09:49;25.00;;;16.60;;
55672;SDS011;41554;45.366;20.400;2023-02-28T08:12:15;22.88;;;16.13;;
55672;SDS011;41554;45.366;20.400;2023-02-28T08:14:41;24.45;;;15.82;;
55672;SDS011;41554;45.366;20.400;2023-02-28T08:17:08;22.38;;;15.93;;
55672;SDS011;41554;45.366;20.400;2023-02-28T08:19:35;26.30;;;17.75;;
55672;SDS011;41554;45.366;20.400;2023-02-28T08:22:01;20.60;;;13.80;;
55672;SDS011;41554;45.366;20.400;2023-02-28T08:24:27;22.05;;;15.43;;
55672;SDS011;41554;45.366;20.400;2023-02-28T08:26:53;23.45;;;17.80;;
55672;SDS011;41554;45.366;20.400;2023-02-28T08:29:19;24.85;;;17.27;;
55672;SDS011;41554;45.366;20.400;2023-02-28T08:31:45;29.58;;;18.25;;
55672;SDS011;41554;45.366;20.400;2023-02-28T08:34:12;20.13;;;14.57;;
55672;SDS011;41554;45.366;20.400;2023-02-28T08:36:38;27.92;;;17.70;;
55672;SDS011;41554;45.366;20.400;2023-02-28T08:39:05;21.92;;;17.13;;
55672;SDS011;41554;45.366;20.400;2023-02-28T08:41:31;23.02;;;18.55;;
55672;SDS011;41554;45.366;20.400;2023-02-28T08:43:58;27.17;;;16.27;;
55672;SDS011;41554;45.366;20.400;2023-02-28T08:46:24;21.88;;;14.90;;
55672;SDS011;41554;45.366;20.400;2023-02-28T08:48:54;23.48;;;17.13;;
55672;SDS011;41554;45.366;20.400;2023-02-28T08:51:20;28.42;;;17.92;;
55672;SDS011;41554;45.366;20.400;2023-02-28T08:53:51;31.20;;;18.33;;
55672;SDS011;41554;45.366;20.400;2023-02-28T08:56:17;24.58;;;19.92;;
55672;SDS011;41554;45.366;20.400;2023-02-28T08:58:44;25.50;;;18.75;;
55672;SDS011;41554;45.366;20.400;2023-02-28T09:01:12;22.85;;;16.33;;
55672;SDS011;41554;45.366;20.400;2023-02-28T09:03:38;25.55;;;15.32;;
55672;SDS011;41554;45.366;20.400;2023-02-28T09:06:06;30.90;;;18.17;;
55672;SDS011;41554;45.366;20.400;2023-02-28T09:08:32;25.98;;;18.30;;
55672;SDS011;41554;45.366;20.400;2023-02-28T09:10:59;25.58;;;17.83;;
55672;SDS011;41554;45.366;20.400;2023-02-28T09:13:27;23.00;;;17.77;;
55672;SDS011;41554;45.366;20.400;2023-02-28T09:15:53;29.30;;;20.50;;
55672;SDS011;41554;45.366;20.400;2023-02-28T09:18:19;21.65;;;17.90;;
55672;SDS011;41554;45.366;20.400;2023-02-28T09:20:45;22.13;;;18.17;;
55672;SDS011;41554;45.366;20.400;2023-02-28T09:23:12;26.98;;;18.15;;
55672;SDS011;41554;45.366;20.400;2023-02-28T09:25:44;27.83;;;17.42;;
55672;SDS011;41554;45.366;20.400;2023-02-28T09:28:11;29.88;;;19.95;;
55672;SDS011;41554;45.366;20.400;2023-02-28T09:30:37;28.80;;;19.55;;
55672;SDS011;41554;45.366;20.400;2023-02-28T09:33:03;31.20;;;19.60;;
55672;SDS011;41554;45.366;20.400;2023-02-28T09:35:29;24.30;;;18.33;;
55672;SDS011;41554;45.366;20.400;2023-02-28T09:37:55;24.25;;;18.23;;
55672;SDS011;41554;45.366;20.400;2023-02-28T09:40:23;25.48;;;17.83;;
55672;SDS011;41554;45.366;20.400;2023-02-28T09:42:51;28.45;;;17.95;;
55672;SDS011;41554;45.366;20.400;2023-02-28T09:45:33;29.83;;;19.08;;
55672;SDS011;41554;45.366;20.400;2023-02-28T09:48:07;28.60;;;20.13;;
55672;SDS011;41554;45.366;20.400;2023-02-28T09:50:38;25.77;;;19.50;;
55672;SDS011;41554;45.366;20.400;2023-02-28T09:55:48;25.98;;;19.63;;
55672;SDS011;41554;45.366;20.400;2023-02-28T10:01:12;24.30;;;18.33;;
55672;SDS011;41554;45.366;20.400;2023-02-28T10:03:45;29.42;;;20.02;;
55672;SDS011;41554;45.366;20.400;2023-02-28T10:09:03;32.35;;;21.00;;
55672;SDS011;41554;45.366;20.400;2023-02-28T10:11:32;30.10;;;20.25;;
55672;SDS011;41554;45.366;20.400;2023-02-28T10:14:06;31.33;;;20.08;;
55672;SDS011;41554;45.366;20.400;2023-02-28T10:16:40;26.52;;;17.63;;
55672;SDS011;41554;45.366;20.400;2023-02-28T10:22:15;29.70;;;19.13;;
55672;SDS011;41554;45.366;20.400;2023-02-28T10:24:44;22.92;;;16.08;;
55672;SDS011;41554;45.366;20.400;2023-02-28T10:27:23;23.17;;;16.65;;
55672;SDS011;41554;45.366;20.400;2023-02-28T10:29:51;36.67;;;22.25;;
55672;SDS011;41554;45.366;20.400;2023-02-28T10:32:18;28.63;;;20.38;;
55672;SDS011;41554;45.366;20.400;2023-02-28T10:34:49;28.20;;;20.02;;
55672;SDS011;41554;45.366;20.400;2023-02-28T10:37:16;26.75;;;19.17;;
55672;SDS011;41554;45.366;20.400;2023-02-28T10:39:43;30.98;;;21.27;;
55672;SDS011;41554;45.366;20.400;2023-02-28T10:44:45;29.45;;;19.67;;
55672;SDS011;41554;45.366;20.400;2023-02-28T10:47:14;27.58;;;18.20;;
55672;SDS011;41554;45.366;20.400;2023-02-28T10:49:43;21.90;;;16.20;;
55672;SDS011;41554;45.366;20.400;2023-02-28T10:52:12;20.48;;;13.30;;
55672;SDS011;41554;45.366;20.400;2023-02-28T10:54:38;18.50;;;15.32;;
55672;SDS011;41554;45.366;20.400;2023-02-28T10:59:32;20.30;;;15.57;;
55672;SDS011;41554;45.366;20.400;2023-02-28T11:01:58;19.15;;;14.02;;
55672;SDS011;41554;45.366;20.400;2023-02-28T11:09:39;24.63;;;16.33;;
55672;SDS011;41554;45.366;20.400;2023-02-28T11:12:17;27.00;;;18.50;;
55672;SDS011;41554;45.366;20.400;2023-02-28T11:14:49;22.95;;;15.75;;
55672;SDS011;41554;45.366;20.400;2023-02-28T11:17:21;18.85;;;12.73;;
55672;SDS011;41554;45.366;20.400;2023-02-28T11:19:48;25.05;;;15.15;;
55672;SDS011;41554;45.366;20.400;2023-02-28T11:22:19;19.90;;;13.27;;
55672;SDS011;41554;45.366;20.400;2023-02-28T11:24:47;22.85;;;14.85;;
55672;SDS011;41554;45.366;20.400;2023-02-28T11:28:00;23.17;;;14.25;;
55672;SDS011;41554;45.366;20.400;2023-02-28T11:30:01;22.05;;;17.38;;
55672;SDS011;41554;45.366;20.400;2023-02-28T11:32:28;25.02;;;16.23;;
55672;SDS011;41554;45.366;20.400;2023-02-28T11:37:36;20.08;;;13.23;;
55672;SDS011;41554;45.366;20.400;2023-02-28T11:40:05;20.10;;;13.68;;
55672;SDS011;41554;45.366;20.400;2023-02-28T11:52:54;24.65;;;17.67;;
55672;SDS011;41554;45.366;20.400;2023-02-28T11:55:35;24.33;;;18.13;;
55672;SDS011;41554;45.366;20.400;2023-02-28T12:13:48;19.15;;;14.55;;
55672;SDS011;41554;45.366;20.400;2023-02-28T12:24:18;29.38;;;17.90;;
55672;SDS011;41554;45.366;20.400;2023-02-28T12:26:48;31.58;;;15.07;;
55672;SDS011;41554;45.366;20.400;2023-02-28T12:34:18;20.85;;;15.80;;
55672;SDS011;41554;45.366;20.400;2023-02-28T12:36:45;26.88;;;18.65;;
55672;SDS011;41554;45.366;20.400;2023-02-28T12:39:15;24.58;;;17.73;;
55672;SDS011;41554;45.366;20.400;2023-02-28T12:41:48;19.85;;;13.07;;
55672;SDS011;41554;45.366;20.400;2023-02-28T12:44:28;22.08;;;15.48;;
55672;SDS011;41554;45.366;20.400;2023-02-28T12:46:59;34.22;;;19.42;;
55672;SDS011;41554;45.366;20.400;2023-02-28T12:52:11;27.15;;;18.52;;
55672;SDS011;41554;45.366;20.400;2023-02-28T12:57:25;22.17;;;14.02;;
55672;SDS011;41554;45.366;20.400;2023-02-28T13:00:14;27.30;;;15.07;;
55672;SDS011;41554;45.366;20.400;2023-02-28T13:13:05;18.73;;;14.85;;
55672;SDS011;41554;45.366;20.400;2023-02-28T13:15:32;17.90;;;14.15;;
55672;SDS011;41554;45.366;20.400;2023-02-28T13:18:03;24.33;;;15.52;;
55672;SDS011;41554;45.366;20.400;2023-02-28T13:20:35;22.48;;;15.52;;
55672;SDS011;41554;45.366;20.400;2023-02-28T13:23:03;24.85;;;14.07;;
55672;SDS011;41554;45.366;20.400;2023-02-28T13:27:56;21.98;;;14.60;;
55672;SDS011;41554;45.366;20.400;2023-02-28T13:38:35;20.55;;;15.88;;
55672;SDS011;41554;45.366;20.400;2023-02-28T13:44:13;24.85;;;16.65;;
55672;SDS011;41554;45.366;20.400;2023-02-28T13:54:37;23.25;;;15.13;;
55672;SDS011;41554;45.366;20.400;2023-02-28T14:00:05;22.42;;;13.43;;
55672;SDS011;41554;45.366;20.400;2023-02-28T14:05:20;19.13;;;13.80;;
55672;SDS011;41554;45.366;20.400;2023-02-28T14:07:52;21.67;;;13.23;;
55672;SDS011;41554;45.366;20.400;2023-02-28T14:10:31;22.77;;;14.90;;
55672;SDS011;41554;45.366;20.400;2023-02-28T14:20:53;24.05;;;16.65;;
55672;SDS011;41554;45.366;20.400;2023-02-28T14:26:00;21.17;;;15.10;;
55672;SDS011;41554;45.366;20.400;2023-02-28T14:38:42;29.33;;;18.48;;
55672;SDS011;41554;45.366;20.400;2023-02-28T14:41:14;19.90;;;16.17;;
55672;SDS011;41554;45.366;20.400;2023-02-28T14:43:48;25.60;;;16.45;;
55672;SDS011;41554;45.366;20.400;2023-02-28T14:46:14;19.90;;;16.98;;
55672;SDS011;41554;45.366;20.400;2023-02-28T14:48:44;25.77;;;18.67;;
55672;SDS011;41554;45.366;20.400;2023-02-28T14:51:10;27.25;;;18.38;;
55672;SDS011;41554;45.366;20.400;2023-02-28T14:53:36;33.10;;;22.33;;
55672;SDS011;41554;45.366;20.400;2023-02-28T14:56:03;22.55;;;18.40;;
55672;SDS011;41554;45.366;20.400;2023-02-28T14:58:30;32.03;;;17.52;;
55672;SDS011;41554;45.366;20.400;2023-02-28T15:00:58;33.83;;;19.33;;
55672;SDS011;41554;45.366;20.400;2023-02-28T15:05:52;26.63;;;20.80;;
55672;SDS011;41554;45.366;20.400;2023-02-28T15:08:18;26.30;;;18.60;;
55672;SDS011;41554;45.366;20.400;2023-02-28T15:10:51;36.88;;;23.13;;
55672;SDS011;41554;45.366;20.400;2023-02-28T15:13:18;29.58;;;19.48;;
55672;SDS011;41554;45.366;20.400;2023-02-28T15:18:16;29.15;;;21.05;;
55672;SDS011;41554;45.366;20.400;2023-02-28T15:20:44;28.10;;;21.20;;
55672;SDS011;41554;45.366;20.400;2023-02-28T15:23:11;28.50;;;22.17;;
55672;SDS011;41554;45.366;20.400;2023-02-28T15:25:37;29.35;;;19.40;;
55672;SDS011;41554;45.366;20.400;2023-02-28T15:28:03;33.00;;;21.88;;
55672;SDS011;41554;45.366;20.400;2023-02-28T15:30:30;26.98;;;19.17;;
55672;SDS011;41554;45.366;20.400;2023-02-28T15:35:31;29.52;;;19.90;;
55672;SDS011;41554;45.366;20.400;2023-02-28T15:38:22;33.92;;;19.08;;
55672;SDS011;41554;45.366;20.400;2023-02-28T15:40:44;31.25;;;19.08;;
55672;SDS011;41554;45.366;20.400;2023-02-28T15:43:28;26.70;;;19.00;;
55672;SDS011;41554;45.366;20.400;2023-02-28T15:45:56;36.60;;;21.20;;
55672;SDS011;41554;45.366;20.400;2023-02-28T15:50:56;32.03;;;20.60;;
55672;SDS011;41554;45.366;20.400;2023-02-28T15:53:28;26.55;;;19.67;;
55672;SDS011;41554;45.366;20.400;2023-02-28T15:55:59;42.70;;;26.02;;
55672;SDS011;41554;45.366;20.400;2023-02-28T15:58:26;41.67;;;25.42;;
55672;SDS011;41554;45.366;20.400;2023-02-28T16:01:06;40.55;;;27.50;;
55672;SDS011;41554;45.366;20.400;2023-02-28T16:03:41;43.10;;;28.55;;
55672;SDS011;41554;45.366;20.400;2023-02-28T16:08:47;77.93;;;56.03;;
55672;SDS011;41554;45.366;20.400;2023-02-28T16:11:14;59.42;;;41.42;;
55672;SDS011;41554;45.366;20.400;2023-02-28T16:13:40;36.40;;;26.65;;
55672;SDS011;41554;45.366;20.400;2023-02-28T16:16:06;40.28;;;23.95;;
55672;SDS011;41554;45.366;20.400;2023-02-28T16:18:32;37.95;;;24.50;;
55672;SDS011;41554;45.366;20.400;2023-02-28T16:20:59;29.05;;;21.05;;
55672;SDS011;41554;45.366;20.400;2023-02-28T16:23:25;36.20;;;25.38;;
55672;SDS011;41554;45.366;20.400;2023-02-28T16:25:51;31.58;;;20.40;;
55672;SDS011;41554;45.366;20.400;2023-02-28T16:28:21;33.10;;;23.98;;
55672;SDS011;41554;45.366;20.400;2023-02-28T16:30:55;31.42;;;24.80;;
55672;SDS011;41554;45.366;20.400;2023-02-28T16:33:21;40.90;;;29.58;;
55672;SDS011;41554;45.366;20.400;2023-02-28T16:35:48;44.05;;;28.80;;
55672;SDS011;41554;45.366;20.400;2023-02-28T16:38:15;51.15;;;32.05;;
55672;SDS011;41554;45.366;20.400;2023-02-28T16:40:41;48.97;;;33.45;;
55672;SDS011;41554;45.366;20.400;2023-02-28T16:43:07;38.13;;;26.73;;
55672;SDS011;41554;45.366;20.400;2023-02-28T16:45:35;38.88;;;27.67;;
55672;SDS011;41554;45.366;20.400;2023-02-28T16:48:01;42.45;;;31.92;;
55672;SDS011;41554;45.366;20.400;2023-02-28T16:50:28;39.35;;;27.42;;
55672;SDS011;41554;45.366;20.400;2023-02-28T16:52:55;42.50;;;25.73;;
55672;SDS011;41554;45.366;20.400;2023-02-28T16:55:21;38.67;;;27.85;;
55672;SDS011;41554;45.366;20.400;2023-02-28T16:57:52;48.38;;;32.50;;
55672;SDS011;41554;45.366;20.400;2023-02-28T17:00:18;46.13;;;34.30;;
55672;SDS011;41554;45.366;20.400;2023-02-28T17:02:45;82.53;;;56.67;;
55672;SDS011;41554;45.366;20.400;2023-02-28T17:05:11;56.05;;;36.15;;
55672;SDS011;41554;45.366;20.400;2023-02-28T17:07:38;41.33;;;31.13;;
55672;SDS011;41554;45.366;20.400;2023-02-28T17:12:36;43.03;;;28.58;;
55672;SDS011;41554;45.366;20.400;2023-02-28T17:15:02;51.65;;;31.73;;
55672;SDS011;41554;45.366;20.400;2023-02-28T17:17:29;47.30;;;32.38;;
55672;SDS011;41554;45.366;20.400;2023-02-28T17:19:56;49.35;;;32.63;;
55672;SDS011;41554;45.366;20.400;2023-02-28T17:22:24;46.28;;;31.80;;